createdAt,value
2022-09-28T00:00:00.000Z,81.36
2022-09-28T00:15:00.000Z,81.12
2022-09-28T00:30:00.000Z,80.12
2022-09-28T00:45:00.000Z,80.22
2022-09-28T01:00:00.000Z,79.39
2022-09-28T01:15:00.000Z,79.81
2022-09-28T01:30:00.000Z,80.73
2022-09-28T01:45:00.000Z,80.71
2022-09-28T02:00:00.000Z,81.01
2022-09-28T02:15:00.000Z,81.32
2022-09-28T02:30:00.000Z,81.13
2022-09-28T02:45:00.000Z,82.25
2022-09-28T03:15:00.000Z,82.01
2022-09-28T03:15:00.000Z,82.31
2022-09-28T03:30:00.000Z,82.4
2022-09-28T03:45:00.000Z,81.79
2022-09-28T04:00:00.000Z,79.72
2022-09-28T04:30:00.000Z,80.9
2022-09-28T04:30:00.000Z,81.34
2022-09-28T04:45:00.000Z,81.77
2022-09-28T05:00:00.000Z,80.17
2022-09-28T05:15:00.000Z,78.3
2022-09-28T05:30:00.000Z,78.17
2022-09-28T05:45:00.000Z,76.47
2022-09-28T06:00:00.000Z,75.76
2022-09-28T06:15:00.000Z,74.44
2022-09-28T06:30:00.000Z,72.73
2022-09-28T06:45:00.000Z,72.88
2022-09-28T07:00:00.000Z,71.87
2022-09-28T07:15:00.000Z,71.28
2022-09-28T07:30:00.000Z,71.35
2022-09-28T07:45:00.000Z,74.16
2022-09-28T08:00:00.000Z,73.99
2022-09-28T08:15:00.000Z,72.57
2022-09-28T08:30:00.000Z,73.3
2022-09-28T08:45:00.000Z,76.36
2022-09-28T09:00:00.000Z,77.82
2022-09-28T09:15:00.000Z,76.71
2022-09-28T09:30:00.000Z,75.28
2022-09-28T09:45:00.000Z,75.28
2022-09-28T10:00:00.000Z,76.11
2022-09-28T10:15:00.000Z,74.65
2022-09-28T10:30:00.000Z,76.27
2022-09-28T10:45:00.000Z,77.62
2022-09-28T11:00:00.000Z,80.18
2022-09-28T11:15:00.000Z,79.39
2022-09-28T11:30:00.000Z,79.9
2022-09-28T11:45:00.000Z,75.98
2022-09-28T12:00:00.000Z,73.33
2022-09-28T12:15:00.000Z,73.48
2022-09-28T12:30:00.000Z,77.62
2022-09-28T12:45:00.000Z,81.06
2022-09-28T13:00:00.000Z,79.77
2022-09-28T13:15:00.000Z,78.73
2022-09-28T13:30:00.000Z,77.91
2022-09-28T13:45:00.000Z,77.86
2022-09-28T14:00:00.000Z,78.65
2022-09-28T14:15:00.000Z,78.66
2022-09-28T14:30:00.000Z,80.62
2022-09-28T14:45:00.000Z,81
2022-09-28T15:00:00.000Z,80.73
2022-09-28T15:15:00.000Z,81.4
2022-09-28T15:30:00.000Z,81.77
2022-09-28T15:45:00.000Z,82.1
2022-09-28T16:00:00.000Z,81.9
2022-09-28T16:15:00.000Z,81.24
2022-09-28T16:30:00.000Z,81.03
2022-09-28T16:45:00.000Z,82.9
2022-09-28T17:00:00.000Z,82.86
2022-09-28T17:15:00.000Z,83.41
2022-09-28T17:30:00.000Z,84.5
2022-09-28T17:45:00.000Z,85.14
2022-09-28T18:00:00.000Z,84.28
2022-09-28T18:15:00.000Z,83.54
2022-09-28T18:30:00.000Z,84.1
2022-09-28T18:45:00.000Z,84.34
2022-09-28T19:00:00.000Z,84.89
2022-09-28T19:15:00.000Z,85.69
2022-09-28T19:30:00.000Z,86.03
2022-09-28T19:45:00.000Z,86.18
2022-09-28T20:00:00.000Z,85.98
2022-09-28T20:15:00.000Z,85.77
2022-09-28T20:30:00.000Z,85.74
2022-09-28T20:45:00.000Z,85.78
2022-09-28T21:00:00.000Z,85.27
2022-09-28T21:15:00.000Z,85.15
2022-09-28T21:30:00.000Z,84.62
2022-09-28T21:45:00.000Z,84.39
2022-09-28T22:00:00.000Z,84.8
2022-09-28T22:15:00.000Z,84.58
2022-09-28T22:30:00.000Z,84.73
2022-09-28T22:45:00.000Z,84.6
2022-09-28T23:00:00.000Z,84.2
2022-09-28T23:15:00.000Z,84.2
2022-09-28T23:30:00.000Z,84.27
2022-09-28T23:45:00.000Z,84.15
